createdAt,value
2022-08-23T00:02:01.988Z,99867.59
2022-08-23T00:04:34.729Z,99850.31
2022-08-23T00:07:03.777Z,99859.56
2022-08-23T00:09:30.324Z,99856.00
2022-08-23T00:12:29.295Z,99858.34
2022-08-23T00:14:55.801Z,99855.63
2022-08-23T00:17:33.335Z,99854.53
2022-08-23T00:20:02.457Z,99850.38
2022-08-23T00:22:28.930Z,99848.69
2022-08-23T00:24:55.381Z,99851.00
2022-08-23T00:27:21.805Z,99852.47
2022-08-23T00:29:53.647Z,99848.06
2022-08-23T00:32:25.590Z,99858.94
2022-08-23T00:34:52.271Z,99850.59
2022-08-23T00:37:19.773Z,99851.69
2022-08-23T00:39:46.521Z,99850.25
2022-08-23T00:42:58.798Z,99848.59
2022-08-23T00:46:00.568Z,99855.31
2022-08-23T00:48:27.049Z,99849.03
2022-08-23T00:51:04.473Z,99846.06
2022-08-23T00:53:38.025Z,99846.56
2022-08-23T00:56:07.589Z,99847.59
2022-08-23T00:58:34.203Z,99841.06
2022-08-23T01:01:02.199Z,99840.47
2022-08-23T01:03:38.941Z,99843.41
2022-08-23T01:06:17.009Z,99839.19
2022-08-23T01:08:49.406Z,99840.28
2022-08-23T01:11:22.966Z,99842.16
2022-08-23T01:14:01.799Z,99841.13
2022-08-23T01:16:34.059Z,99844.69
2022-08-23T01:19:02.381Z,99847.63
2022-08-23T01:22:19.010Z,99843.84
2022-08-23T01:25:07.257Z,99846.56
2022-08-23T01:27:33.608Z,99839.13
2022-08-23T01:30:00.755Z,99843.59
2022-08-23T01:32:29.774Z,99833.13
2022-08-23T01:34:56.381Z,99831.69
2022-08-23T01:37:23.088Z,99839.03
2022-08-23T01:39:49.779Z,99839.00
2022-08-23T01:42:16.615Z,99839.41
2022-08-23T01:44:43.329Z,99841.06
2022-08-23T01:47:09.986Z,99847.34
2022-08-23T01:49:36.637Z,99841.97
2022-08-23T01:52:03.951Z,99845.53
2022-08-23T01:54:30.904Z,99853.69
2022-08-23T01:56:57.455Z,99856.41
2022-08-23T01:59:24.277Z,99854.50
2022-08-23T02:01:51.543Z,99863.78
2022-08-23T02:04:18.242Z,99859.78
2022-08-23T02:06:45.008Z,99866.50
2022-08-23T02:09:17.148Z,99858.28
2022-08-23T02:11:44.869Z,99851.34
2022-08-23T02:14:19.303Z,99854.16
2022-08-23T02:17:03.114Z,99850.47
2022-08-23T02:19:33.004Z,99843.09
2022-08-23T02:21:59.933Z,99839.97
2022-08-23T02:24:26.646Z,99841.84
2022-08-23T02:26:57.134Z,99845.06
2022-08-23T02:29:26.142Z,99842.75
2022-08-23T02:31:52.759Z,99839.97
2022-08-23T02:37:04.729Z,99842.13
2022-08-23T02:39:31.343Z,99841.84
2022-08-23T02:41:57.896Z,99839.41
2022-08-23T02:44:24.669Z,99845.16
2022-08-23T02:46:51.226Z,99843.09
2022-08-23T02:49:18.325Z,99840.97
2022-08-23T02:51:45.551Z,99846.19
2022-08-23T02:54:12.360Z,99842.25
2022-08-23T02:56:39.323Z,99845.78
2022-08-23T02:59:06.651Z,99843.25
2022-08-23T03:01:36.175Z,99850.13
2022-08-23T03:04:03.955Z,99844.69
2022-08-23T03:06:30.639Z,99841.81
2022-08-23T03:08:57.669Z,99846.84
2022-08-23T03:11:25.121Z,99849.38
2022-08-23T03:13:52.905Z,99859.84
2022-08-23T03:16:20.232Z,99849.38
2022-08-23T03:18:47.257Z,99854.81
2022-08-23T03:21:14.191Z,99853.97
2022-08-23T03:23:41.394Z,99852.47
2022-08-23T03:26:09.653Z,99854.41
2022-08-23T03:28:37.650Z,99858.16
2022-08-23T03:31:04.943Z,99854.41
2022-08-23T03:33:31.540Z,99863.22
2022-08-23T03:36:03.593Z,99860.09
2022-08-23T03:38:30.152Z,99858.22
2022-08-23T03:40:57.121Z,99865.28
2022-08-23T03:43:23.706Z,99862.75
2022-08-23T03:45:50.253Z,99874.72
2022-08-23T03:48:17.523Z,99864.09
2022-08-23T03:50:44.453Z,99868.09
2022-08-23T03:53:12.169Z,99875.00
2022-08-23T03:55:42.681Z,99870.41
2022-08-23T03:58:10.882Z,99883.78
2022-08-23T04:00:38.127Z,99879.56
2022-08-23T04:03:04.762Z,99874.63
2022-08-23T04:05:31.205Z,99885.03
2022-08-23T04:07:57.663Z,99889.81
2022-08-23T04:10:24.310Z,99886.06
2022-08-23T04:12:52.582Z,99887.56
2022-08-23T04:15:19.617Z,99893.19
2022-08-23T04:17:46.085Z,99886.06
2022-08-23T04:20:12.535Z,99885.47
2022-08-23T04:22:39.402Z,99892.53
2022-08-23T04:25:09.985Z,99887.38
2022-08-23T04:27:52.809Z,99900.19
2022-08-23T04:30:20.433Z,99895.13
2022-08-23T04:32:47.716Z,99898.50
2022-08-23T04:35:14.796Z,99900.63
2022-08-23T04:37:41.495Z,99896.81
2022-08-23T04:40:31.639Z,99899.34
2022-08-23T04:42:58.215Z,99900.56
2022-08-23T04:45:27.136Z,99899.72
2022-08-23T04:47:54.103Z,99907.28
2022-08-23T04:50:21.702Z,99912.28
2022-08-23T04:52:48.107Z,99903.94
2022-08-23T04:55:14.649Z,99902.44
2022-08-23T04:57:42.551Z,99906.06
2022-08-23T05:00:12.787Z,99905.22
2022-08-23T05:02:39.468Z,99900.03
2022-08-23T05:05:09.128Z,99899.00
2022-08-23T05:07:42.414Z,99906.06
2022-08-23T05:10:12.826Z,99902.97
2022-08-23T05:12:39.777Z,99904.84
2022-08-23T05:15:07.138Z,99908.25
2022-08-23T05:17:33.637Z,99911.88
2022-08-23T05:20:00.101Z,99917.31
2022-08-23T05:22:26.564Z,99920.91
2022-08-23T05:24:53.016Z,99927.25
2022-08-23T05:27:19.490Z,99924.78
2022-08-23T05:29:46.441Z,99927.09
2022-08-23T05:32:12.903Z,99932.75
2022-08-23T05:34:39.458Z,99929.19
2022-08-23T05:37:05.922Z,99919.59
2022-08-23T05:39:36.061Z,99929.44
2022-08-23T05:42:03.599Z,99929.69
2022-08-23T05:44:30.373Z,99932.84
2022-08-23T05:47:04.268Z,99934.03
2022-08-23T05:49:36.805Z,99934.94
2022-08-23T05:52:08.028Z,99937.00
2022-08-23T05:54:35.148Z,99939.53
2022-08-23T05:57:02.110Z,99943.69
2022-08-23T05:59:28.690Z,99938.66
2022-08-23T06:01:55.147Z,99942.22
2022-08-23T06:04:21.884Z,99940.38
2022-08-23T06:06:48.634Z,99949.97
2022-08-23T06:09:17.287Z,99945.81
2022-08-23T06:11:45.445Z,99955.03
2022-08-23T06:14:12.293Z,99956.94
2022-08-23T06:16:42.648Z,99948.38
2022-08-23T06:19:09.779Z,99957.25
2022-08-23T06:21:37.324Z,99958.31
2022-08-23T06:24:05.019Z,99958.72
2022-08-23T06:26:35.029Z,99968.97
2022-08-23T06:29:06.195Z,99962.06
2022-08-23T06:31:50.902Z,99960.19
2022-08-23T06:34:19.907Z,99960.19
2022-08-23T06:36:52.390Z,99958.31
2022-08-23T06:39:21.094Z,99968.84
2022-08-23T06:41:50.866Z,99968.63
2022-08-23T06:44:18.849Z,99969.06
2022-08-23T06:46:46.650Z,99968.91
2022-08-23T06:49:13.764Z,99977.72
2022-08-23T06:51:46.098Z,99983.97
2022-08-23T06:54:14.634Z,99983.34
2022-08-23T06:56:42.269Z,99987.09
2022-08-23T06:59:09.985Z,99994.44
2022-08-23T07:01:45.598Z,99996.56
2022-08-23T07:04:15.906Z,99993.41
2022-08-23T07:06:42.684Z,99994.09
2022-08-23T07:09:09.262Z,100004.38
2022-08-23T07:11:35.981Z,100005.16
2022-08-23T07:14:08.614Z,100002.06
2022-08-23T07:16:41.035Z,100014.00
2022-08-23T07:19:09.142Z,100016.28
2022-08-23T07:21:36.581Z,100027.03
2022-08-23T07:24:03.319Z,100026.66
2022-08-23T07:26:29.842Z,100027.88
2022-08-23T07:28:57.450Z,100025.78
2022-08-23T07:31:30.532Z,100025.34
2022-08-23T07:34:02.188Z,100030.84
2022-08-23T07:36:30.847Z,100024.16
2022-08-23T07:38:57.689Z,100027.75
2022-08-23T07:41:26.128Z,100032.59
2022-08-23T07:43:52.595Z,100031.34
2022-08-23T07:46:19.122Z,100029.06
2022-08-23T07:48:54.992Z,100028.03
2022-08-23T07:51:22.096Z,100037.47
2022-08-23T07:53:48.523Z,100043.53
2022-08-23T07:56:16.167Z,100037.88
2022-08-23T07:58:42.742Z,100042.31
2022-08-23T08:01:16.266Z,100044.41
2022-08-23T08:03:44.187Z,100050.06
2022-08-23T08:06:32.625Z,100045.66
2022-08-23T08:09:00.057Z,100057.63
2022-08-23T08:11:34.574Z,100057.84
2022-08-23T08:14:05.681Z,100060.78
2022-08-23T08:16:38.078Z,100061.22
2022-08-23T08:19:08.019Z,100057.19
2022-08-23T08:21:35.477Z,100058.69
2022-08-23T08:24:02.875Z,100064.34
2022-08-23T08:26:29.530Z,100059.50
2022-08-23T08:28:56.469Z,100054.03
2022-08-23T08:31:24.324Z,100056.06
2022-08-23T08:33:51.020Z,100063.38
2022-08-23T08:36:33.682Z,100070.94
2022-08-23T08:39:00.580Z,100065.84
2022-08-23T08:41:48.677Z,100068.16
2022-08-23T08:44:36.201Z,100058.06
2022-08-23T08:47:33.604Z,100064.06
2022-08-23T08:50:11.690Z,100055.78
2022-08-23T08:52:48.342Z,100062.59
2022-08-23T08:55:21.228Z,100071.66
2022-08-23T08:57:49.417Z,100081.34
2022-08-23T09:00:25.577Z,100075.13
2022-08-23T09:02:52.739Z,100076.47
2022-08-23T09:05:26.849Z,100092.31
2022-08-23T09:08:04.325Z,100083.69
2022-08-23T09:10:37.058Z,100094.47
2022-08-23T09:13:12.689Z,100093.91
2022-08-23T09:15:53.058Z,100087.00
2022-08-23T09:18:19.548Z,100097.16
2022-08-23T09:20:48.019Z,100096.53
2022-08-23T09:23:20.640Z,100094.94
2022-08-23T09:25:57.099Z,100104.84
2022-08-23T09:28:30.271Z,100099.88
2022-08-23T09:30:58.720Z,100093.16
2022-08-23T09:33:43.228Z,100101.09
2022-08-23T09:36:20.908Z,100092.63
2022-08-23T09:38:56.555Z,100089.03
2022-08-23T09:41:37.889Z,100089.69
2022-08-23T09:44:07.564Z,100094.88
2022-08-23T09:46:39.147Z,100101.38
2022-08-23T09:49:23.011Z,100093.91
2022-08-23T09:51:50.644Z,100104.31
2022-08-23T09:54:25.060Z,100105.06
2022-08-23T09:56:57.535Z,100108.63
2022-08-23T09:59:27.467Z,100101.97
2022-08-23T10:01:56.723Z,100105.28
2022-08-23T10:04:29.300Z,100106.22
2022-08-23T10:06:56.571Z,100107.19
2022-08-23T10:09:32.669Z,100110.19
2022-08-23T10:12:00.785Z,100106.56
2022-08-23T10:14:32.903Z,100102.00
2022-08-23T10:17:12.226Z,100107.22
2022-08-23T10:19:49.081Z,100107.03
2022-08-23T10:22:18.444Z,100107.41
2022-08-23T10:24:52.485Z,100108.25
2022-08-23T10:27:53.112Z,100110.59
2022-08-23T10:30:23.667Z,100113.13
2022-08-23T10:33:01.070Z,100113.00
2022-08-23T10:35:29.554Z,100110.38
2022-08-23T10:38:08.562Z,100119.25
2022-08-23T10:40:42.421Z,100110.84
2022-08-23T10:43:25.996Z,100120.88
2022-08-23T10:45:57.106Z,100118.97
2022-08-23T10:48:31.761Z,100118.41
2022-08-23T10:51:02.163Z,100118.25
2022-08-23T10:53:59.777Z,100120.19
2022-08-23T10:56:27.974Z,100113.38
2022-08-23T10:58:56.987Z,100118.28
2022-08-23T11:01:50.028Z,100121.22
2022-08-23T11:04:23.645Z,100121.91
2022-08-23T11:06:52.933Z,100122.50
2022-08-23T11:09:19.425Z,100125.34
2022-08-23T11:12:11.012Z,100117.72
2022-08-23T11:14:44.395Z,100112.38
2022-08-23T11:17:23.310Z,100108.06
2022-08-23T11:20:07.416Z,100109.28
2022-08-23T11:23:01.815Z,100107.09
2022-08-23T11:25:28.278Z,100113.59
2022-08-23T11:28:25.829Z,100110.97
2022-08-23T11:30:57.449Z,100112.44
2022-08-23T11:33:33.121Z,100115.88
2022-08-23T11:36:09.004Z,100115.50
2022-08-23T11:38:58.450Z,100106.34
2022-08-23T11:41:28.868Z,100110.41
2022-08-23T11:43:56.480Z,100111.94
2022-08-23T11:46:22.949Z,100114.59
2022-08-23T11:48:54.559Z,100114.38
2022-08-23T11:51:39.180Z,100123.31
2022-08-23T11:54:18.114Z,100129.50
2022-08-23T11:57:02.921Z,100120.53
2022-08-23T12:00:10.738Z,100125.91
2022-08-23T12:03:08.264Z,100120.66
2022-08-23T12:05:34.866Z,100127.34
2022-08-23T12:08:01.583Z,100128.19
2022-08-23T12:10:40.613Z,100128.56
2022-08-23T12:13:24.792Z,100123.41
2022-08-23T12:16:29.066Z,100120.16
2022-08-23T12:18:58.377Z,100131.16
2022-08-23T12:21:34.106Z,100135.41
2022-08-23T12:24:14.494Z,100126.44
2022-08-23T12:26:49.650Z,100124.41
2022-08-23T12:29:25.783Z,100131.41
2022-08-23T12:31:59.509Z,100130.00
2022-08-23T12:34:42.089Z,100125.16
2022-08-23T12:37:30.512Z,100124.44
2022-08-23T12:39:59.461Z,100124.53
2022-08-23T12:42:31.107Z,100123.03
2022-08-23T12:45:13.035Z,100122.59
2022-08-23T12:47:44.663Z,100116.19
2022-08-23T12:50:15.075Z,100126.03
2022-08-23T12:52:41.914Z,100115.22
2022-08-23T12:55:18.470Z,100123.50
2022-08-23T12:57:54.290Z,100115.75
2022-08-23T13:00:34.027Z,100116.44
2022-08-23T13:03:04.886Z,100128.91
2022-08-23T13:05:39.477Z,100124.47
2022-08-23T13:08:09.869Z,100123.25
2022-08-23T13:10:38.298Z,100115.44
2022-08-23T13:13:05.005Z,100116.44
2022-08-23T13:15:45.940Z,100126.88
2022-08-23T13:18:27.268Z,100121.78
2022-08-23T13:21:17.499Z,100118.94
2022-08-23T13:23:44.665Z,100120.16
2022-08-23T13:26:40.796Z,100125.09
2022-08-23T13:29:09.092Z,100118.16
2022-08-23T13:31:53.262Z,100131.00
2022-08-23T13:34:39.280Z,100129.03
2022-08-23T13:37:26.819Z,100120.69
2022-08-23T13:40:00.026Z,100113.25
2022-08-23T13:42:48.435Z,100113.34
2022-08-23T13:45:26.252Z,100111.59
2022-08-23T13:48:03.487Z,100116.56
2022-08-23T13:50:36.544Z,100112.44
2022-08-23T13:53:19.579Z,100110.63
2022-08-23T13:55:53.158Z,100110.03
2022-08-23T13:58:29.334Z,100118.38
2022-08-23T14:00:58.950Z,100120.31
2022-08-23T14:03:29.089Z,100124.03
2022-08-23T14:05:55.809Z,100120.38
2022-08-23T14:08:22.352Z,100124.63
2022-08-23T14:10:49.380Z,100115.56
2022-08-23T14:13:17.466Z,100117.09
2022-08-23T14:16:32.916Z,100117.78
2022-08-23T14:18:32.471Z,100112.00
2022-08-23T14:20:59.297Z,100116.88
2022-08-23T14:23:25.820Z,100120.53
2022-08-23T14:25:54.619Z,100109.91
2022-08-23T14:28:23.969Z,100109.84
2022-08-23T14:30:51.453Z,100113.91
2022-08-23T14:33:20.087Z,100117.91
2022-08-23T14:35:46.792Z,100114.22
2022-08-23T14:38:15.147Z,100115.75
2022-08-23T14:41:05.552Z,100118.47
2022-08-23T14:43:32.095Z,100112.06
2022-08-23T14:45:59.115Z,100113.38
2022-08-23T14:48:26.375Z,100115.22
2022-08-23T14:50:53.533Z,100109.41
2022-08-23T14:53:27.617Z,100107.38
2022-08-23T14:56:12.264Z,100108.25
2022-08-23T14:58:41.851Z,100111.38
2022-08-23T15:01:09.270Z,100114.59
2022-08-23T15:03:36.097Z,100109.56
2022-08-23T15:06:03.359Z,100109.72
2022-08-23T15:08:29.785Z,100108.41
2022-08-23T15:13:55.229Z,100108.28
2022-08-23T15:16:23.779Z,100118.19
2022-08-23T15:18:51.284Z,100112.69
2022-08-23T15:21:18.583Z,100109.63
2022-08-23T15:23:46.536Z,100119.66
2022-08-23T15:26:15.136Z,100117.13
2022-08-23T15:28:41.966Z,100123.09
2022-08-23T15:31:08.874Z,100116.06
2022-08-23T15:33:35.546Z,100118.91
2022-08-23T15:36:02.348Z,100118.91
2022-08-23T15:38:31.638Z,100114.63
2022-08-23T15:40:58.739Z,100122.28
2022-08-23T15:43:33.968Z,100112.97
2022-08-23T15:46:11.278Z,100112.09
2022-08-23T15:48:44.379Z,100113.41
2022-08-23T15:51:11.240Z,100110.88
2022-08-23T15:53:39.572Z,100110.63
2022-08-23T15:56:11.902Z,100106.34
2022-08-23T15:58:38.874Z,100107.19
2022-08-23T16:01:09.108Z,100104.34
2022-08-23T16:03:37.998Z,100101.13
2022-08-23T16:06:50.994Z,100100.63
2022-08-23T16:09:21.158Z,100092.91
2022-08-23T16:11:48.224Z,100084.28
2022-08-23T16:14:15.545Z,100086.69
2022-08-23T16:16:42.701Z,100090.03
2022-08-23T16:19:09.811Z,100083.50
2022-08-23T16:21:36.816Z,100081.84
2022-08-23T16:24:06.625Z,100090.47
2022-08-23T16:26:35.760Z,100087.72
2022-08-23T16:29:06.561Z,100081.06
2022-08-23T16:31:38.829Z,100087.97
2022-08-23T16:34:08.708Z,100085.56
2022-08-23T16:36:35.411Z,100092.00
2022-08-23T16:39:02.019Z,100086.84
2022-08-23T16:41:28.661Z,100090.50
2022-08-23T16:43:55.200Z,100093.44
2022-08-23T16:46:24.813Z,100083.53
2022-08-23T16:49:17.081Z,100090.63
2022-08-23T16:52:08.260Z,100095.41
2022-08-23T16:54:34.877Z,100094.09
2022-08-23T16:57:02.144Z,100094.81
2022-08-23T16:59:29.870Z,100086.28
2022-08-23T17:01:59.526Z,100090.63
2022-08-23T17:04:31.150Z,100092.31
2022-08-23T17:07:32.444Z,100091.72
2022-08-23T17:10:11.705Z,100094.00
2022-08-23T17:12:58.578Z,100092.41
2022-08-23T17:16:08.313Z,100089.19
2022-08-23T17:18:50.778Z,100091.31
2022-08-23T17:21:47.129Z,100094.13
2022-08-23T17:24:54.718Z,100103.06
2022-08-23T17:28:17.262Z,100102.94
2022-08-23T17:31:24.495Z,100095.84
2022-08-23T17:34:06.049Z,100099.75
2022-08-23T17:36:50.575Z,100097.75
2022-08-23T17:40:21.267Z,100096.75
2022-08-23T17:46:24.771Z,100102.06
2022-08-23T17:49:00.831Z,100105.19
2022-08-23T17:51:46.832Z,100109.06
2022-08-23T17:54:23.024Z,100106.38
2022-08-23T17:57:00.724Z,100109.44
2022-08-23T17:59:35.913Z,100104.31
2022-08-23T18:02:26.107Z,100111.53
2022-08-23T18:05:33.537Z,100109.50
2022-08-23T18:11:47.173Z,100111.19
2022-08-23T18:14:34.218Z,100120.88
2022-08-23T18:17:14.861Z,100120.91
2022-08-23T18:19:45.895Z,100123.69
2022-08-23T18:22:15.306Z,100119.25
2022-08-23T18:24:43.022Z,100133.38
2022-08-23T18:27:28.040Z,100129.16
2022-08-23T18:29:54.570Z,100131.91
2022-08-23T18:32:21.015Z,100133.59
2022-08-23T18:34:47.451Z,100129.38
2022-08-23T18:37:17.027Z,100136.53
2022-08-23T18:39:44.140Z,100129.81
2022-08-23T18:42:10.657Z,100134.44
2022-08-23T18:44:37.155Z,100136.56
2022-08-23T18:47:04.017Z,100134.88
2022-08-23T18:49:31.995Z,100140.34
2022-08-23T18:51:59.132Z,100144.97
2022-08-23T18:54:25.872Z,100155.94
2022-08-23T18:56:52.522Z,100152.97
2022-08-23T18:59:19.043Z,100155.50
2022-08-23T19:01:51.488Z,100160.34
2022-08-23T19:04:33.069Z,100164.75
2022-08-23T19:06:59.960Z,100161.16
2022-08-23T19:12:23.269Z,100165.22
2022-08-23T19:14:50.182Z,100169.59
2022-08-23T19:17:19.139Z,100179.50
2022-08-23T19:19:48.277Z,100173.19
2022-08-23T19:22:25.105Z,100171.13
2022-08-23T19:24:56.012Z,100168.19
2022-08-23T19:27:38.824Z,100171.97
2022-08-23T19:30:17.463Z,100179.34
2022-08-23T19:32:48.356Z,100176.63
2022-08-23T19:35:16.138Z,100179.97
2022-08-23T19:37:43.754Z,100184.63
2022-08-23T19:40:11.005Z,100190.09
2022-08-23T19:42:37.752Z,100182.94
2022-08-23T19:45:06.250Z,100184.81
2022-08-23T19:47:32.911Z,100191.13
2022-08-23T19:49:59.525Z,100190.09
2022-08-23T19:52:26.263Z,100195.34
2022-08-23T19:54:53.187Z,100190.91
2022-08-23T19:57:20.346Z,100189.88
2022-08-23T19:59:46.957Z,100187.75
2022-08-23T20:02:14.508Z,100195.34
2022-08-23T20:04:41.209Z,100191.75
2022-08-23T20:07:07.703Z,100197.66
2022-08-23T20:09:34.571Z,100196.81
2022-08-23T20:12:01.204Z,100195.34
2022-08-23T20:14:31.258Z,100196.66
2022-08-23T20:16:57.894Z,100191.19
2022-08-23T20:19:25.365Z,100194.34
2022-08-23T20:22:15.699Z,100198.97
2022-08-23T20:24:51.259Z,100201.91
2022-08-23T20:27:28.323Z,100197.50
2022-08-23T20:30:00.153Z,100202.34
2022-08-23T20:32:28.208Z,100194.13
2022-08-23T20:34:54.866Z,100196.88
2022-08-23T20:37:21.654Z,100192.44
2022-08-23T20:39:48.242Z,100191.59
2022-08-23T20:42:15.483Z,100195.19
2022-08-23T20:44:42.073Z,100193.28
2022-08-23T20:47:08.769Z,100189.94
2022-08-23T20:49:35.266Z,100194.78
2022-08-23T20:52:02.245Z,100195.00
2022-08-23T20:54:28.829Z,100194.38
2022-08-23T20:56:55.872Z,100197.31
2022-08-23T20:59:22.514Z,100194.16
2022-08-23T21:01:50.177Z,100200.47
2022-08-23T21:04:17.572Z,100203.63
2022-08-23T21:06:49.942Z,100201.31
2022-08-23T21:09:22.574Z,100203.00
2022-08-23T21:11:51.461Z,100205.53
2022-08-23T21:14:18.956Z,100201.09
2022-08-23T21:16:46.727Z,100199.44
2022-08-23T21:19:14.533Z,100204.91
2022-08-23T21:21:41.667Z,100194.38
2022-08-23T21:24:09.386Z,100202.34
2022-08-23T21:26:36.956Z,100206.13
2022-08-23T21:29:04.982Z,100199.22
2022-08-23T21:31:31.701Z,100193.97
2022-08-23T21:34:00.201Z,100188.50
2022-08-23T21:36:27.160Z,100195.63
2022-08-23T21:38:53.608Z,100187.44
2022-08-23T21:41:34.702Z,100184.28
2022-08-23T21:44:03.017Z,100187.03
2022-08-23T21:46:29.755Z,100179.66
2022-08-23T21:48:56.861Z,100180.50
2022-08-23T21:51:23.718Z,100183.44
2022-08-23T21:53:50.876Z,100177.34
2022-08-23T21:56:17.684Z,100183.03
2022-08-23T21:58:44.252Z,100180.50
2022-08-23T22:01:11.387Z,100178.59
2022-08-23T22:03:38.352Z,100173.38
2022-08-23T22:06:05.354Z,100176.50
2022-08-23T22:08:32.078Z,100178.81
2022-08-23T22:11:06.167Z,100171.47
2022-08-23T22:13:33.218Z,100160.53
2022-08-23T22:16:01.505Z,100165.38
2022-08-23T22:18:31.281Z,100167.25
2022-08-23T22:20:58.277Z,100166.22
2022-08-23T22:23:26.277Z,100162.44
2022-08-23T22:25:55.942Z,100159.50
2022-08-23T22:28:22.627Z,100158.22
2022-08-23T22:30:49.112Z,100160.53
2022-08-23T22:33:15.514Z,100154.88
2022-08-23T22:35:48.385Z,100164.94
2022-08-23T22:38:15.498Z,100164.09
2022-08-23T22:40:52.910Z,100164.53
2022-08-23T22:43:20.002Z,100154.66
2022-08-23T22:45:57.325Z,100160.13
2022-08-23T22:48:24.961Z,100157.59
2022-08-23T22:50:51.542Z,100155.50
2022-08-23T22:53:19.236Z,100159.06
2022-08-23T22:55:51.902Z,100163.06
2022-08-23T22:58:18.358Z,100160.50
2022-08-23T23:00:45.208Z,100151.25
2022-08-23T23:03:11.739Z,100155.44
2022-08-23T23:05:38.332Z,100150.19
2022-08-23T23:08:24.051Z,100160.06
2022-08-23T23:10:50.664Z,100154.16
2022-08-23T23:13:17.117Z,100149.53
2022-08-23T23:15:43.881Z,100152.47
2022-08-23T23:18:11.090Z,100148.91
2022-08-23T23:20:41.166Z,100149.13
2022-08-23T23:23:15.167Z,100138.81
2022-08-23T23:25:43.217Z,100154.75
2022-08-23T23:28:11.758Z,100149.06
2022-08-23T23:30:39.076Z,100161.81
2022-08-23T23:36:57.272Z,100146.09
2022-08-23T23:39:24.426Z,100148.44
2022-08-23T23:41:51.109Z,100150.75
2022-08-23T23:44:24.317Z,100148.00
2022-08-23T23:46:57.430Z,100141.94
2022-08-23T23:49:32.048Z,100143.44
2022-08-23T23:51:59.208Z,100141.34
2022-08-23T23:54:25.647Z,100143.66
2022-08-23T23:56:52.071Z,100139.69
2022-08-23T23:59:19.546Z,100138.84
